createdAt,value
2022-09-23T00:01:33.000Z,98984
2022-09-23T00:04:24.000Z,98980
2022-09-23T00:05:50.000Z,98981
2022-09-23T00:07:56.000Z,98981
2022-09-23T00:09:23.000Z,98980
2022-09-23T00:11:29.000Z,98984
2022-09-23T00:12:56.000Z,98987
2022-09-23T00:15:02.000Z,98982
2022-09-23T00:16:28.000Z,98982
2022-09-23T00:18:35.000Z,98982
2022-09-23T00:20:01.000Z,98978
2022-09-23T00:22:07.000Z,98981
2022-09-23T00:23:34.000Z,98978
2022-09-23T00:25:40.000Z,98975
2022-09-23T00:27:07.000Z,98973
2022-09-23T00:29:13.000Z,98973
2022-09-23T00:30:39.000Z,98972
2022-09-23T00:32:46.000Z,98967
2022-09-23T00:34:12.000Z,98966
2022-09-23T00:36:18.000Z,98962
2022-09-23T00:37:45.000Z,98965
2022-09-23T00:39:51.000Z,98965
2022-09-23T00:42:42.000Z,98961
2022-09-23T00:44:08.000Z,98956
2022-09-23T00:46:14.000Z,98955
2022-09-23T00:47:41.000Z,98957
2022-09-23T00:49:47.000Z,98956
2022-09-23T00:51:14.000Z,98949
2022-09-23T00:53:20.000Z,98954
2022-09-23T00:54:46.000Z,98954
2022-09-23T00:56:52.000Z,98953
2022-09-23T00:58:19.000Z,98951
2022-09-23T01:00:25.000Z,98954
2022-09-23T01:01:51.000Z,98948
2022-09-23T01:03:57.000Z,98947
2022-09-23T01:05:24.000Z,98947
2022-09-23T01:07:30.000Z,98945
2022-09-23T01:08:56.000Z,98949
2022-09-23T01:11:03.000Z,98945
2022-09-23T01:12:29.000Z,98943
2022-09-23T01:14:35.000Z,98941
2022-09-23T01:16:02.000Z,98941
2022-09-23T01:18:08.000Z,98940
2022-09-23T01:20:59.000Z,98938
2022-09-23T01:22:26.000Z,98936
2022-09-23T01:24:32.000Z,98936
2022-09-23T01:25:58.000Z,98933
2022-09-23T01:28:04.000Z,98926
2022-09-23T01:29:31.000Z,98928
2022-09-23T01:31:37.000Z,98921
2022-09-23T01:33:03.000Z,98924
2022-09-23T01:35:10.000Z,98923
2022-09-23T01:36:36.000Z,98921
2022-09-23T01:38:42.000Z,98919
2022-09-23T01:40:09.000Z,98920
2022-09-23T01:42:15.000Z,98918
2022-09-23T01:43:41.000Z,98918
2022-09-23T01:45:48.000Z,98915
2022-09-23T01:47:14.000Z,98917
2022-09-23T01:49:20.000Z,98915
2022-09-23T01:50:47.000Z,98914
2022-09-23T01:52:53.000Z,98912
2022-09-23T01:54:19.000Z,98914
2022-09-23T01:56:26.000Z,98913
2022-09-23T01:59:16.000Z,98914
2022-09-23T02:00:43.000Z,98915
2022-09-23T02:02:49.000Z,98913
2022-09-23T02:04:16.000Z,98914
2022-09-23T02:06:22.000Z,98917
2022-09-23T02:07:48.000Z,98915
2022-09-23T02:09:54.000Z,98913
2022-09-23T02:11:21.000Z,98913
2022-09-23T02:13:27.000Z,98913
2022-09-23T02:14:54.000Z,98912
2022-09-23T02:17:00.000Z,98913
2022-09-23T02:18:26.000Z,98913
2022-09-23T02:20:32.000Z,98912
2022-09-23T02:21:59.000Z,98911
2022-09-23T02:24:05.000Z,98906
2022-09-23T02:25:32.000Z,98906
2022-09-23T02:27:38.000Z,98905
2022-09-23T02:29:04.000Z,98902
2022-09-23T02:31:10.000Z,98901
2022-09-23T02:32:37.000Z,98901
2022-09-23T02:34:43.000Z,98902
2022-09-23T02:37:34.000Z,98901
2022-09-23T02:39:01.000Z,98898
2022-09-23T02:41:07.000Z,98895
2022-09-23T02:42:33.000Z,98896
2022-09-23T02:44:39.000Z,98896
2022-09-23T02:46:06.000Z,98894
2022-09-23T02:48:12.000Z,98892
2022-09-23T02:49:39.000Z,98892
2022-09-23T02:51:45.000Z,98893
2022-09-23T02:53:11.000Z,98891
2022-09-23T02:55:17.000Z,98887
2022-09-23T02:56:44.000Z,98888
2022-09-23T02:58:50.000Z,98884
2022-09-23T03:00:17.000Z,98882
2022-09-23T03:02:23.000Z,98884
2022-09-23T03:03:49.000Z,98882
2022-09-23T03:05:55.000Z,98880
2022-09-23T03:07:22.000Z,98880
2022-09-23T03:09:28.000Z,98876
2022-09-23T03:10:54.000Z,98876
2022-09-23T03:13:01.000Z,98877
2022-09-23T03:15:52.000Z,98873
2022-09-23T03:17:18.000Z,98871
2022-09-23T03:19:25.000Z,98871
2022-09-23T03:20:51.000Z,98868
2022-09-23T03:22:57.000Z,98865
2022-09-23T03:24:24.000Z,98866
2022-09-23T03:26:30.000Z,98859
2022-09-23T03:27:56.000Z,98862
2022-09-23T03:30:02.000Z,98860
2022-09-23T03:31:29.000Z,98861
2022-09-23T03:33:35.000Z,98861
2022-09-23T03:35:02.000Z,98862
2022-09-23T03:37:08.000Z,98861
2022-09-23T03:38:34.000Z,98864
2022-09-23T03:40:40.000Z,98859
2022-09-23T03:42:07.000Z,98859
2022-09-23T03:44:13.000Z,98857
2022-09-23T03:45:39.000Z,98856
2022-09-23T03:47:46.000Z,98853
2022-09-23T03:49:12.000Z,98856
2022-09-23T03:51:18.000Z,98857
2022-09-23T03:54:09.000Z,98850
2022-09-23T03:55:36.000Z,98849
2022-09-23T03:57:42.000Z,98849
2022-09-23T03:59:08.000Z,98848
2022-09-23T04:01:15.000Z,98846
2022-09-23T04:02:41.000Z,98846
2022-09-23T04:04:47.000Z,98842
2022-09-23T04:06:14.000Z,98845
2022-09-23T04:08:20.000Z,98840
2022-09-23T04:09:46.000Z,98840
2022-09-23T04:11:52.000Z,98837
2022-09-23T04:13:19.000Z,98838
2022-09-23T04:15:25.000Z,98836
2022-09-23T04:16:51.000Z,98835
2022-09-23T04:18:58.000Z,98832
2022-09-23T04:20:24.000Z,98832
2022-09-23T04:22:30.000Z,98829
2022-09-23T04:23:57.000Z,98827
2022-09-23T04:26:03.000Z,98827
2022-09-23T04:27:30.000Z,98824
2022-09-23T04:29:42.000Z,98822
2022-09-23T04:32:34.000Z,98823
2022-09-23T04:34:00.000Z,98822
2022-09-23T04:36:06.000Z,98823
2022-09-23T04:37:33.000Z,98820
2022-09-23T04:39:39.000Z,98821
2022-09-23T04:41:05.000Z,98824
2022-09-23T04:43:11.000Z,98819
2022-09-23T04:44:39.000Z,98821
2022-09-23T04:46:46.000Z,98821
2022-09-23T04:48:12.000Z,98821
2022-09-23T04:50:18.000Z,98815
2022-09-23T04:51:45.000Z,98817
2022-09-23T04:53:51.000Z,98820
2022-09-23T04:55:17.000Z,98814
2022-09-23T04:57:24.000Z,98819
2022-09-23T04:58:50.000Z,98820
2022-09-23T05:00:56.000Z,98821
2022-09-23T05:02:29.000Z,98825
2022-09-23T05:04:35.000Z,98824
2022-09-23T05:06:02.000Z,98830
2022-09-23T05:08:08.000Z,98828
2022-09-23T05:10:59.000Z,98830
2022-09-23T05:12:26.000Z,98830
2022-09-23T05:14:32.000Z,98833
2022-09-23T05:15:58.000Z,98829
2022-09-23T05:18:05.000Z,98830
2022-09-23T05:19:31.000Z,98829
2022-09-23T05:21:37.000Z,98829
2022-09-23T05:23:04.000Z,98831
2022-09-23T05:25:10.000Z,98831
2022-09-23T05:26:37.000Z,98830
2022-09-23T05:28:43.000Z,98832
2022-09-23T05:30:09.000Z,98832
2022-09-23T05:32:16.000Z,98834
2022-09-23T05:33:42.000Z,98830
2022-09-23T05:35:48.000Z,98830
2022-09-23T05:37:15.000Z,98833
2022-09-23T05:39:21.000Z,98830
2022-09-23T05:40:47.000Z,98830
2022-09-23T05:44:48.000Z,98825
2022-09-23T05:48:27.000Z,98824
2022-09-23T05:49:01.000Z,98826
2022-09-23T05:51:51.000Z,98824
2022-09-23T05:53:17.000Z,98825
2022-09-23T05:55:24.000Z,98826
2022-09-23T05:56:50.000Z,98828
2022-09-23T05:58:56.000Z,98830
2022-09-23T06:00:23.000Z,98828
2022-09-23T06:02:29.000Z,98833
2022-09-23T06:03:55.000Z,98833
2022-09-23T06:06:02.000Z,98828
2022-09-23T06:07:28.000Z,98834
2022-09-23T06:09:34.000Z,98830
2022-09-23T06:11:03.000Z,98835
2022-09-23T06:13:09.000Z,98835
2022-09-23T06:14:35.000Z,98832
2022-09-23T06:16:42.000Z,98831
2022-09-23T06:18:08.000Z,98832
2022-09-23T06:20:14.000Z,98831
2022-09-23T06:21:41.000Z,98836
2022-09-23T06:23:47.000Z,98839
2022-09-23T06:25:14.000Z,98836
2022-09-23T06:27:20.000Z,98835
2022-09-23T06:30:11.000Z,98836
2022-09-23T06:31:37.000Z,98832
2022-09-23T06:33:44.000Z,98827
2022-09-23T06:35:10.000Z,98828
2022-09-23T06:37:31.000Z,98832
2022-09-23T06:38:58.000Z,98830
2022-09-23T06:41:04.000Z,98832
2022-09-23T06:42:30.000Z,98829
2022-09-23T06:44:37.000Z,98833
2022-09-23T06:46:03.000Z,98831
2022-09-23T06:48:09.000Z,98831
2022-09-23T06:49:36.000Z,98827
2022-09-23T06:51:42.000Z,98823
2022-09-23T06:53:09.000Z,98829
2022-09-23T06:55:15.000Z,98825
2022-09-23T06:56:41.000Z,98824
2022-09-23T06:58:48.000Z,98822
2022-09-23T07:00:14.000Z,98824
2022-09-23T07:02:20.000Z,98822
2022-09-23T07:03:47.000Z,98824
2022-09-23T07:05:53.000Z,98821
2022-09-23T07:08:45.000Z,98821
2022-09-23T07:10:11.000Z,98814
2022-09-23T07:12:17.000Z,98818
2022-09-23T07:13:44.000Z,98814
2022-09-23T07:15:50.000Z,98814
2022-09-23T07:17:17.000Z,98811
2022-09-23T07:19:23.000Z,98815
2022-09-23T07:20:49.000Z,98813
2022-09-23T07:22:55.000Z,98816
2022-09-23T07:24:22.000Z,98813
2022-09-23T07:26:28.000Z,98810
2022-09-23T07:27:55.000Z,98808
2022-09-23T07:30:01.000Z,98809
2022-09-23T07:31:27.000Z,98812
2022-09-23T07:33:45.000Z,98807
2022-09-23T07:35:12.000Z,98808
2022-09-23T07:37:18.000Z,98803
2022-09-23T07:38:44.000Z,98801
2022-09-23T07:40:51.000Z,98802
2022-09-23T07:42:18.000Z,98804
2022-09-23T07:44:24.000Z,98798
2022-09-23T07:47:15.000Z,98798
2022-09-23T07:48:42.000Z,98797
2022-09-23T07:50:48.000Z,98797
2022-09-23T07:52:14.000Z,98796
2022-09-23T07:54:20.000Z,98794
2022-09-23T07:55:47.000Z,98792
2022-09-23T07:57:53.000Z,98796
2022-09-23T07:59:20.000Z,98795
2022-09-23T08:01:26.000Z,98795
2022-09-23T08:02:52.000Z,98794
2022-09-23T08:04:59.000Z,98793
2022-09-23T08:06:25.000Z,98794
2022-09-23T08:08:31.000Z,98790
2022-09-23T08:09:58.000Z,98793
2022-09-23T08:12:04.000Z,98785
2022-09-23T08:13:30.000Z,98789
2022-09-23T08:15:37.000Z,98788
2022-09-23T08:17:03.000Z,98787
2022-09-23T08:19:09.000Z,98787
2022-09-23T08:20:36.000Z,98785
2022-09-23T08:22:42.000Z,98784
2022-09-23T08:25:33.000Z,98779
2022-09-23T08:27:01.000Z,98775
2022-09-23T08:29:07.000Z,98772
2022-09-23T08:30:33.000Z,98774
2022-09-23T08:32:39.000Z,98772
2022-09-23T08:34:06.000Z,98773
2022-09-23T08:36:12.000Z,98768
2022-09-23T08:37:39.000Z,98775
2022-09-23T08:39:45.000Z,98773
2022-09-23T08:41:11.000Z,98768
2022-09-23T08:43:17.000Z,98766
2022-09-23T08:44:44.000Z,98766
2022-09-23T08:46:50.000Z,98768
2022-09-23T08:48:16.000Z,98771
2022-09-23T08:50:22.000Z,98771
2022-09-23T08:51:49.000Z,98771
2022-09-23T08:53:55.000Z,98770
2022-09-23T08:55:22.000Z,98765
2022-09-23T08:57:28.000Z,98767
2022-09-23T08:58:54.000Z,98772
2022-09-23T09:01:00.000Z,98769
2022-09-23T09:03:51.000Z,98769
2022-09-23T09:05:18.000Z,98770
2022-09-23T09:07:24.000Z,98769
2022-09-23T09:09:03.000Z,98769
2022-09-23T09:11:09.000Z,98768
2022-09-23T09:12:36.000Z,98764
2022-09-23T09:14:42.000Z,98761
2022-09-23T09:16:08.000Z,98758
2022-09-23T09:18:14.000Z,98750
2022-09-23T09:19:41.000Z,98750
2022-09-23T09:21:47.000Z,98748
2022-09-23T09:23:14.000Z,98746
2022-09-23T09:25:20.000Z,98744
2022-09-23T09:26:46.000Z,98742
2022-09-23T09:28:52.000Z,98745
2022-09-23T09:30:19.000Z,98742
2022-09-23T09:32:25.000Z,98739
2022-09-23T09:33:51.000Z,98740
2022-09-23T09:35:57.000Z,98733
2022-09-23T09:37:24.000Z,98732
2022-09-23T09:39:30.000Z,98729
2022-09-23T09:42:21.000Z,98727
2022-09-23T09:43:48.000Z,98720
2022-09-23T09:45:54.000Z,98725
2022-09-23T09:47:24.000Z,98715
2022-09-23T09:49:30.000Z,98711
2022-09-23T09:50:57.000Z,98713
2022-09-23T09:53:03.000Z,98711
2022-09-23T09:54:29.000Z,98710
2022-09-23T09:56:36.000Z,98704
2022-09-23T09:58:02.000Z,98708
2022-09-23T10:00:09.000Z,98707
2022-09-23T10:01:35.000Z,98705
2022-09-23T10:03:41.000Z,98707
2022-09-23T10:05:08.000Z,98701
2022-09-23T10:07:14.000Z,98700
2022-09-23T10:08:41.000Z,98702
2022-09-23T10:10:47.000Z,98704
2022-09-23T10:12:13.000Z,98704
2022-09-23T10:14:19.000Z,98702
2022-09-23T10:15:46.000Z,98702
2022-09-23T10:17:52.000Z,98705
2022-09-23T10:20:43.000Z,98705
2022-09-23T10:22:10.000Z,98705
2022-09-23T10:24:16.000Z,98704
2022-09-23T10:25:42.000Z,98702
2022-09-23T10:27:48.000Z,98696
2022-09-23T10:29:15.000Z,98702
2022-09-23T10:31:21.000Z,98701
2022-09-23T10:32:47.000Z,98699
2022-09-23T10:34:53.000Z,98700
2022-09-23T10:36:20.000Z,98699
2022-09-23T10:38:26.000Z,98697
2022-09-23T10:39:53.000Z,98691
2022-09-23T10:41:59.000Z,98693
2022-09-23T10:43:25.000Z,98694
2022-09-23T10:45:31.000Z,98688
2022-09-23T10:46:58.000Z,98687
2022-09-23T10:49:04.000Z,98688
2022-09-23T10:50:31.000Z,98683
2022-09-23T10:52:37.000Z,98683
2022-09-23T10:54:03.000Z,98674
2022-09-23T10:56:09.000Z,98671
2022-09-23T10:59:00.000Z,98668
2022-09-23T11:00:27.000Z,98670
2022-09-23T11:02:33.000Z,98669
2022-09-23T11:04:00.000Z,98672
2022-09-23T11:06:06.000Z,98670
2022-09-23T11:07:32.000Z,98665
2022-09-23T11:09:43.000Z,98666
2022-09-23T11:11:09.000Z,98664
2022-09-23T11:13:15.000Z,98667
2022-09-23T11:14:42.000Z,98660
2022-09-23T11:16:48.000Z,98663
2022-09-23T11:18:15.000Z,98656
2022-09-23T11:20:21.000Z,98652
2022-09-23T11:21:47.000Z,98649
2022-09-23T11:23:53.000Z,98650
2022-09-23T11:25:20.000Z,98649
2022-09-23T11:27:26.000Z,98650
2022-09-23T11:28:52.000Z,98648
2022-09-23T11:30:58.000Z,98645
2022-09-23T11:32:25.000Z,98649
2022-09-23T11:34:31.000Z,98644
2022-09-23T11:37:22.000Z,98642
2022-09-23T11:38:49.000Z,98637
2022-09-23T11:40:55.000Z,98639
2022-09-23T11:42:22.000Z,98635
2022-09-23T11:44:28.000Z,98628
2022-09-23T11:45:54.000Z,98626
2022-09-23T11:48:00.000Z,98620
2022-09-23T11:49:27.000Z,98624
2022-09-23T11:51:33.000Z,98614
2022-09-23T11:52:59.000Z,98611
2022-09-23T11:55:05.000Z,98611
2022-09-23T11:56:43.000Z,98615
2022-09-23T11:58:53.000Z,98606
2022-09-23T12:00:25.000Z,98606
2022-09-23T12:02:31.000Z,98599
2022-09-23T12:03:58.000Z,98593
2022-09-23T12:06:08.000Z,98603
2022-09-23T12:07:34.000Z,98597
2022-09-23T12:09:40.000Z,98593
2022-09-23T12:11:24.000Z,98592
2022-09-23T12:13:30.000Z,98586
2022-09-23T12:16:22.000Z,98592
2022-09-23T12:17:48.000Z,98592
2022-09-23T12:19:55.000Z,98589
2022-09-23T12:21:21.000Z,98590
2022-09-23T12:23:54.000Z,98589
2022-09-23T12:25:21.000Z,98588
2022-09-23T12:27:27.000Z,98585
2022-09-23T12:28:54.000Z,98584
2022-09-23T12:31:00.000Z,98579
2022-09-23T12:32:26.000Z,98578
2022-09-23T12:34:32.000Z,98579
2022-09-23T12:35:59.000Z,98584
2022-09-23T12:38:05.000Z,98579
2022-09-23T12:39:32.000Z,98576
2022-09-23T12:41:38.000Z,98580
2022-09-23T12:43:04.000Z,98579
2022-09-23T12:45:10.000Z,98580
2022-09-23T12:46:37.000Z,98577
2022-09-23T12:48:43.000Z,98577
2022-09-23T12:50:09.000Z,98580
2022-09-23T12:52:22.000Z,98582
2022-09-23T12:55:13.000Z,98580
2022-09-23T12:56:40.000Z,98579
2022-09-23T12:58:46.000Z,98572
2022-09-23T13:00:12.000Z,98574
2022-09-23T13:02:19.000Z,98569
2022-09-23T13:03:45.000Z,98568
2022-09-23T13:05:51.000Z,98568
2022-09-23T13:07:18.000Z,98566
2022-09-23T13:09:24.000Z,98570
2022-09-23T13:10:51.000Z,98568
2022-09-23T13:12:57.000Z,98565
2022-09-23T13:14:23.000Z,98566
2022-09-23T13:16:33.000Z,98565
2022-09-23T13:18:00.000Z,98563
2022-09-23T13:20:06.000Z,98562
2022-09-23T13:21:32.000Z,98556
2022-09-23T13:23:38.000Z,98557
2022-09-23T13:25:05.000Z,98554
2022-09-23T13:27:11.000Z,98556
2022-09-23T13:28:38.000Z,98550
2022-09-23T13:30:44.000Z,98549
2022-09-23T13:33:35.000Z,98542
2022-09-23T13:35:02.000Z,98539
2022-09-23T13:37:08.000Z,98536
2022-09-23T13:38:34.000Z,98535
2022-09-23T13:40:40.000Z,98532
2022-09-23T13:42:07.000Z,98534
2022-09-23T13:44:13.000Z,98530
2022-09-23T13:45:39.000Z,98527
2022-09-23T13:47:46.000Z,98523
2022-09-23T13:49:12.000Z,98527
2022-09-23T13:51:18.000Z,98524
2022-09-23T13:52:45.000Z,98520
2022-09-23T13:54:51.000Z,98525
2022-09-23T13:56:18.000Z,98522
2022-09-23T13:58:24.000Z,98519
2022-09-23T13:59:50.000Z,98513
2022-09-23T14:01:56.000Z,98517
2022-09-23T14:03:23.000Z,98518
2022-09-23T14:05:29.000Z,98511
2022-09-23T14:06:56.000Z,98512
2022-09-23T14:09:02.000Z,98506
2022-09-23T14:11:53.000Z,98508
2022-09-23T14:13:19.000Z,98504
2022-09-23T14:15:31.000Z,98503
2022-09-23T14:16:58.000Z,98502
2022-09-23T14:19:04.000Z,98501
2022-09-23T14:20:30.000Z,98496
2022-09-23T14:22:37.000Z,98494
2022-09-23T14:24:03.000Z,98490
2022-09-23T14:26:09.000Z,98487
2022-09-23T14:27:36.000Z,98487
2022-09-23T14:29:42.000Z,98482
2022-09-23T14:31:08.000Z,98480
2022-09-23T14:33:15.000Z,98474
2022-09-23T14:34:41.000Z,98476
2022-09-23T14:36:47.000Z,98478
2022-09-23T14:38:14.000Z,98477
2022-09-23T14:40:20.000Z,98476
2022-09-23T14:41:46.000Z,98473
2022-09-23T14:43:53.000Z,98470
2022-09-23T14:45:19.000Z,98470
2022-09-23T14:47:25.000Z,98473
2022-09-23T14:50:17.000Z,98468
2022-09-23T14:51:43.000Z,98464
2022-09-23T14:53:49.000Z,98466
2022-09-23T14:55:16.000Z,98469
2022-09-23T14:57:22.000Z,98467
2022-09-23T14:58:48.000Z,98464
2022-09-23T15:00:58.000Z,98462
2022-09-23T15:02:25.000Z,98460
2022-09-23T15:04:31.000Z,98459
2022-09-23T15:05:58.000Z,98457
2022-09-23T15:08:04.000Z,98458
2022-09-23T15:09:30.000Z,98452
2022-09-23T15:11:36.000Z,98456
2022-09-23T15:13:03.000Z,98454
2022-09-23T15:15:09.000Z,98458
2022-09-23T15:16:36.000Z,98457
2022-09-23T15:18:42.000Z,98451
2022-09-23T15:20:08.000Z,98448
2022-09-23T15:22:14.000Z,98444
2022-09-23T15:23:41.000Z,98441
2022-09-23T15:25:47.000Z,98436
2022-09-23T15:28:38.000Z,98434
2022-09-23T15:30:05.000Z,98437
2022-09-23T15:32:11.000Z,98433
2022-09-23T15:33:38.000Z,98431
2022-09-23T15:35:44.000Z,98433
2022-09-23T15:37:10.000Z,98434
2022-09-23T15:39:16.000Z,98433
2022-09-23T15:40:43.000Z,98440
2022-09-23T15:42:49.000Z,98443
2022-09-23T15:44:16.000Z,98444
2022-09-23T15:46:22.000Z,98444
2022-09-23T15:47:48.000Z,98444
2022-09-23T15:49:54.000Z,98443
2022-09-23T15:51:21.000Z,98446
2022-09-23T15:53:27.000Z,98443
2022-09-23T15:54:53.000Z,98439
2022-09-23T15:57:00.000Z,98436
2022-09-23T15:58:26.000Z,98436
2022-09-23T16:00:32.000Z,98435
2022-09-23T16:01:59.000Z,98435
2022-09-23T16:04:05.000Z,98436
2022-09-23T16:06:56.000Z,98437
2022-09-23T16:08:23.000Z,98433
2022-09-23T16:10:29.000Z,98432
2022-09-23T16:11:55.000Z,98432
2022-09-23T16:14:02.000Z,98436
2022-09-23T16:15:28.000Z,98436
2022-09-23T16:17:34.000Z,98438
2022-09-23T16:19:01.000Z,98438
2022-09-23T16:21:07.000Z,98439
2022-09-23T16:22:33.000Z,98439
2022-09-23T16:24:39.000Z,98440
2022-09-23T16:26:06.000Z,98445
2022-09-23T16:28:12.000Z,98440
2022-09-23T16:29:38.000Z,98440
2022-09-23T16:31:44.000Z,98439
2022-09-23T16:33:11.000Z,98438
2022-09-23T16:35:17.000Z,98437
2022-09-23T16:36:44.000Z,98438
2022-09-23T16:38:50.000Z,98435
2022-09-23T16:40:16.000Z,98430
2022-09-23T16:42:22.000Z,98430
2022-09-23T16:45:14.000Z,98434
2022-09-23T16:46:40.000Z,98433
2022-09-23T16:48:46.000Z,98431
2022-09-23T16:50:19.000Z,98434
2022-09-23T16:52:25.000Z,98436
2022-09-23T16:53:51.000Z,98437
2022-09-23T16:55:57.000Z,98438
2022-09-23T16:57:24.000Z,98441
2022-09-23T16:59:30.000Z,98442
2022-09-23T17:00:56.000Z,98439
2022-09-23T17:03:03.000Z,98443
2022-09-23T17:04:29.000Z,98443
2022-09-23T17:06:35.000Z,98446
2022-09-23T17:08:02.000Z,98446
2022-09-23T17:10:08.000Z,98442
2022-09-23T17:11:34.000Z,98440
2022-09-23T17:13:40.000Z,98441
2022-09-23T17:15:07.000Z,98440
2022-09-23T17:17:13.000Z,98440
2022-09-23T17:18:40.000Z,98438
2022-09-23T17:20:46.000Z,98437
2022-09-23T17:23:37.000Z,98440
2022-09-23T17:25:04.000Z,98437
2022-09-23T17:27:10.000Z,98438
2022-09-23T17:28:36.000Z,98440
2022-09-23T17:30:42.000Z,98441
2022-09-23T17:32:09.000Z,98440
2022-09-23T17:34:15.000Z,98439
2022-09-23T17:35:41.000Z,98439
2022-09-23T17:37:47.000Z,98442
2022-09-23T17:39:14.000Z,98436
2022-09-23T17:41:20.000Z,98438
2022-09-23T17:42:46.000Z,98443
2022-09-23T17:44:53.000Z,98442
2022-09-23T17:46:19.000Z,98445
2022-09-23T17:48:25.000Z,98444
2022-09-23T17:49:52.000Z,98448
2022-09-23T17:51:58.000Z,98448
2022-09-23T17:53:24.000Z,98450
2022-09-23T17:55:31.000Z,98453
2022-09-23T17:56:57.000Z,98453
2022-09-23T17:59:03.000Z,98459
2022-09-23T18:01:54.000Z,98459
2022-09-23T18:03:21.000Z,98455
2022-09-23T18:05:27.000Z,98457
2022-09-23T18:06:54.000Z,98454
2022-09-23T18:09:00.000Z,98456
2022-09-23T18:10:26.000Z,98458
2022-09-23T18:12:33.000Z,98457
2022-09-23T18:13:59.000Z,98455
2022-09-23T18:16:05.000Z,98455
2022-09-23T18:17:32.000Z,98456
2022-09-23T18:19:38.000Z,98454
2022-09-23T18:21:04.000Z,98456
2022-09-23T18:23:10.000Z,98454
2022-09-23T18:24:37.000Z,98453
2022-09-23T18:26:43.000Z,98448
2022-09-23T18:28:10.000Z,98447
2022-09-23T18:30:16.000Z,98448
2022-09-23T18:31:42.000Z,98452
2022-09-23T18:33:48.000Z,98454
2022-09-23T18:35:15.000Z,98453
2022-09-23T18:37:21.000Z,98456
2022-09-23T18:40:12.000Z,98455
2022-09-23T18:41:41.000Z,98454
2022-09-23T18:43:47.000Z,98453
2022-09-23T18:45:14.000Z,98451
2022-09-23T18:47:20.000Z,98449
2022-09-23T18:48:47.000Z,98449
2022-09-23T18:50:53.000Z,98450
2022-09-23T18:52:20.000Z,98453
2022-09-23T18:54:26.000Z,98453
2022-09-23T18:55:52.000Z,98454
2022-09-23T18:57:58.000Z,98453
2022-09-23T18:59:25.000Z,98456
2022-09-23T19:01:31.000Z,98453
2022-09-23T19:02:58.000Z,98452
2022-09-23T19:05:04.000Z,98450
2022-09-23T19:06:30.000Z,98448
2022-09-23T19:08:36.000Z,98448
2022-09-23T19:10:03.000Z,98446
2022-09-23T19:12:09.000Z,98444
2022-09-23T19:13:35.000Z,98443
2022-09-23T19:15:42.000Z,98440
2022-09-23T19:18:33.000Z,98440
2022-09-23T19:19:59.000Z,98436
2022-09-23T19:22:05.000Z,98439
2022-09-23T19:23:32.000Z,98435
2022-09-23T19:25:38.000Z,98441
2022-09-23T19:27:05.000Z,98441
2022-09-23T19:29:11.000Z,98445
2022-09-23T19:30:37.000Z,98448
2022-09-23T19:32:43.000Z,98449
2022-09-23T19:34:10.000Z,98446
2022-09-23T19:36:16.000Z,98444
2022-09-23T19:37:43.000Z,98439
2022-09-23T19:39:49.000Z,98439
2022-09-23T19:41:15.000Z,98433
2022-09-23T19:43:22.000Z,98434
2022-09-23T19:44:48.000Z,98438
2022-09-23T19:46:54.000Z,98439
2022-09-23T19:48:23.000Z,98435
2022-09-23T19:50:29.000Z,98435
2022-09-23T19:51:56.000Z,98435
2022-09-23T19:54:02.000Z,98436
2022-09-23T19:56:53.000Z,98438
2022-09-23T19:58:20.000Z,98439
2022-09-23T20:00:26.000Z,98436
2022-09-23T20:01:53.000Z,98440
2022-09-23T20:03:59.000Z,98433
2022-09-23T20:05:26.000Z,98431
2022-09-23T20:07:32.000Z,98429
2022-09-23T20:08:58.000Z,98428
2022-09-23T20:11:04.000Z,98432
2022-09-23T20:12:31.000Z,98431
2022-09-23T20:14:37.000Z,98437
2022-09-23T20:16:04.000Z,98438
2022-09-23T20:18:10.000Z,98439
2022-09-23T20:19:36.000Z,98437
2022-09-23T20:21:42.000Z,98436
2022-09-23T20:23:09.000Z,98433
2022-09-23T20:25:15.000Z,98426
2022-09-23T20:26:41.000Z,98421
2022-09-23T20:28:47.000Z,98423
2022-09-23T20:30:14.000Z,98425
2022-09-23T20:32:20.000Z,98421
2022-09-23T20:35:11.000Z,98420
2022-09-23T20:36:38.000Z,98419
2022-09-23T20:38:44.000Z,98422
2022-09-23T20:40:10.000Z,98419
2022-09-23T20:42:17.000Z,98414
2022-09-23T20:43:43.000Z,98409
2022-09-23T20:45:49.000Z,98407
2022-09-23T20:47:16.000Z,98406
2022-09-23T20:49:22.000Z,98405
2022-09-23T20:50:48.000Z,98408
2022-09-23T20:52:55.000Z,98406
2022-09-23T20:54:21.000Z,98403
2022-09-23T20:56:27.000Z,98402
2022-09-23T20:57:54.000Z,98400
2022-09-23T21:00:00.000Z,98395
2022-09-23T21:01:26.000Z,98396
2022-09-23T21:03:32.000Z,98401
2022-09-23T21:04:59.000Z,98401
2022-09-23T21:07:05.000Z,98401
2022-09-23T21:08:32.000Z,98397
2022-09-23T21:10:38.000Z,98395
2022-09-23T21:13:29.000Z,98406
2022-09-23T21:14:56.000Z,98408
2022-09-23T21:17:02.000Z,98413
2022-09-23T21:18:28.000Z,98412
2022-09-23T21:20:34.000Z,98411
2022-09-23T21:22:01.000Z,98406
2022-09-23T21:24:07.000Z,98405
2022-09-23T21:26:19.000Z,98400
2022-09-23T21:28:25.000Z,98398
2022-09-23T21:29:52.000Z,98400
2022-09-23T21:31:58.000Z,98398
2022-09-23T21:33:24.000Z,98401
2022-09-23T21:35:31.000Z,98401
2022-09-23T21:36:57.000Z,98404
2022-09-23T21:39:03.000Z,98402
2022-09-23T21:40:30.000Z,98402
2022-09-23T21:42:36.000Z,98399
2022-09-23T21:44:03.000Z,98395
2022-09-23T21:46:09.000Z,98391
2022-09-23T21:47:36.000Z,98389
2022-09-23T21:49:42.000Z,98390
2022-09-23T21:52:39.000Z,98388
2022-09-23T21:54:05.000Z,98390
2022-09-23T21:56:12.000Z,98391
2022-09-23T21:57:43.000Z,98391
2022-09-23T21:59:49.000Z,98389
2022-09-23T22:01:15.000Z,98387
2022-09-23T22:03:22.000Z,98387
2022-09-23T22:04:48.000Z,98383
2022-09-23T22:06:54.000Z,98384
2022-09-23T22:08:21.000Z,98384
2022-09-23T22:10:27.000Z,98383
2022-09-23T22:11:53.000Z,98385
2022-09-23T22:13:59.000Z,98386
2022-09-23T22:15:26.000Z,98384
2022-09-23T22:17:32.000Z,98381
2022-09-23T22:18:58.000Z,98377
2022-09-23T22:21:05.000Z,98378
2022-09-23T22:22:31.000Z,98379
2022-09-23T22:24:37.000Z,98384
2022-09-23T22:26:04.000Z,98384
2022-09-23T22:28:10.000Z,98388
2022-09-23T22:31:01.000Z,98388
2022-09-23T22:32:27.000Z,98390
2022-09-23T22:34:34.000Z,98392
2022-09-23T22:36:15.000Z,98386
2022-09-23T22:38:21.000Z,98390
2022-09-23T22:39:48.000Z,98393
2022-09-23T22:41:54.000Z,98392
2022-09-23T22:43:20.000Z,98391
2022-09-23T22:45:26.000Z,98392
2022-09-23T22:46:53.000Z,98392
2022-09-23T22:48:59.000Z,98388
2022-09-23T22:50:26.000Z,98388
2022-09-23T22:52:32.000Z,98385
2022-09-23T22:53:58.000Z,98390
2022-09-23T22:56:04.000Z,98383
2022-09-23T22:57:31.000Z,98377
2022-09-23T22:59:37.000Z,98371
2022-09-23T23:01:04.000Z,98371
2022-09-23T23:03:10.000Z,98366
2022-09-23T23:04:36.000Z,98364
2022-09-23T23:06:42.000Z,98367
2022-09-23T23:09:33.000Z,98367
2022-09-23T23:11:00.000Z,98368
2022-09-23T23:13:06.000Z,98364
2022-09-23T23:14:33.000Z,98366
2022-09-23T23:16:39.000Z,98368
2022-09-23T23:18:05.000Z,98366
2022-09-23T23:20:12.000Z,98364
2022-09-23T23:21:38.000Z,98362
2022-09-23T23:23:44.000Z,98358
2022-09-23T23:25:11.000Z,98356
2022-09-23T23:27:17.000Z,98357
2022-09-23T23:28:43.000Z,98361
2022-09-23T23:30:49.000Z,98370
2022-09-23T23:32:16.000Z,98371
2022-09-23T23:34:22.000Z,98369
2022-09-23T23:35:48.000Z,98372